createdAt,value
2022-09-29T00:01:19.498Z,3.23
2022-09-29T00:03:47.820Z,2.57
2022-09-29T00:06:19.668Z,2.30
2022-09-29T00:08:49.395Z,2.60
2022-09-29T00:11:20.277Z,2.57
2022-09-29T00:13:50.065Z,1.70
2022-09-29T00:16:18.588Z,2.00
2022-09-29T00:18:47.148Z,1.77
2022-09-29T00:21:19.765Z,1.70
2022-09-29T00:23:50.985Z,1.80
2022-09-29T00:26:21.992Z,1.63
2022-09-29T00:28:53.701Z,1.70
2022-09-29T00:31:23.135Z,1.57
2022-09-29T00:33:51.791Z,1.40
2022-09-29T00:36:21.969Z,1.30
2022-09-29T00:38:53.909Z,1.47
2022-09-29T00:41:24.954Z,1.27
2022-09-29T00:43:58.142Z,1.07
2022-09-29T00:46:36.913Z,1.20
2022-09-29T00:49:12.155Z,1.10
2022-09-29T00:51:44.230Z,1.10
2022-09-29T00:54:14.148Z,1.20
2022-09-29T00:56:43.903Z,1.47
2022-09-29T00:59:18.595Z,0.97
2022-09-29T01:01:47.775Z,0.97
2022-09-29T01:04:20.391Z,1.13
2022-09-29T01:06:52.877Z,1.20
2022-09-29T01:09:28.076Z,1.00
2022-09-29T01:11:58.333Z,1.07
2022-09-29T01:14:29.730Z,0.80
2022-09-29T01:16:58.330Z,1.07
2022-09-29T01:19:35.255Z,0.90
2022-09-29T01:22:13.768Z,0.97
2022-09-29T01:24:59.962Z,1.40
2022-09-29T01:28:27.031Z,1.20
2022-09-29T01:31:22.644Z,0.87
2022-09-29T01:34:02.382Z,1.10
2022-09-29T01:36:40.494Z,0.90
2022-09-29T01:39:26.964Z,0.87
2022-09-29T01:42:02.020Z,0.90
2022-09-29T01:44:34.892Z,0.97
2022-09-29T01:47:09.763Z,0.90
2022-09-29T01:49:41.692Z,1.20
2022-09-29T01:52:13.574Z,1.00
2022-09-29T01:54:48.698Z,0.90
2022-09-29T01:57:22.392Z,1.00
2022-09-29T01:59:56.971Z,1.07
2022-09-29T02:02:33.842Z,0.97
2022-09-29T02:05:06.897Z,1.30
2022-09-29T02:07:38.590Z,0.93
2022-09-29T02:10:13.392Z,1.00
2022-09-29T02:12:43.280Z,1.20
2022-09-29T02:15:18.674Z,0.97
2022-09-29T02:17:52.059Z,1.10
2022-09-29T02:20:20.930Z,1.10
2022-09-29T02:22:49.403Z,0.83
2022-09-29T02:25:20.489Z,1.20
2022-09-29T02:27:50.363Z,0.93
2022-09-29T02:30:19.541Z,1.10
2022-09-29T02:32:49.723Z,1.23
2022-09-29T02:35:18.179Z,1.20
2022-09-29T02:37:59.947Z,1.40
2022-09-29T02:40:42.532Z,1.10
2022-09-29T02:43:45.565Z,1.23
2022-09-29T02:46:33.437Z,1.20
2022-09-29T02:49:22.827Z,1.20
2022-09-29T02:51:59.823Z,1.40
2022-09-29T02:54:47.258Z,1.40
2022-09-29T02:57:21.569Z,1.83
2022-09-29T03:00:05.370Z,1.30
2022-09-29T03:02:33.624Z,1.10
2022-09-29T03:05:03.630Z,1.10
2022-09-29T03:07:31.830Z,1.20
2022-09-29T03:10:00.124Z,1.20
2022-09-29T03:12:28.400Z,1.27
2022-09-29T03:14:56.634Z,1.17
2022-09-29T03:17:25.050Z,1.10
2022-09-29T03:19:53.263Z,1.03
2022-09-29T03:22:22.826Z,1.10
2022-09-29T03:24:51.353Z,1.30
2022-09-29T03:27:19.723Z,1.60
2022-09-29T03:29:47.915Z,1.03
2022-09-29T03:32:16.174Z,1.30
2022-09-29T03:34:44.484Z,1.23
2022-09-29T03:37:12.731Z,1.00
2022-09-29T03:39:42.306Z,1.20
2022-09-29T03:42:10.614Z,1.30
2022-09-29T03:44:38.839Z,1.20
2022-09-29T03:47:07.098Z,1.30
2022-09-29T03:49:35.680Z,1.30
2022-09-29T03:52:03.897Z,1.40
2022-09-29T03:54:32.155Z,1.50
2022-09-29T03:57:01.749Z,1.50
2022-09-29T03:59:30.072Z,1.30
2022-09-29T04:01:58.429Z,2.10
2022-09-29T04:04:26.785Z,2.77
2022-09-29T04:06:54.994Z,2.13
2022-09-29T04:09:23.219Z,1.30
2022-09-29T04:11:51.450Z,1.50
2022-09-29T04:14:21.073Z,1.40
2022-09-29T04:16:49.397Z,1.50
2022-09-29T04:19:17.694Z,1.60
2022-09-29T04:21:45.985Z,1.50
2022-09-29T04:24:14.417Z,1.30
2022-09-29T04:26:42.646Z,1.40
2022-09-29T04:29:11.910Z,1.13
2022-09-29T04:31:41.582Z,1.07
2022-09-29T04:34:09.842Z,1.50
2022-09-29T04:36:38.048Z,1.20
2022-09-29T04:39:06.870Z,1.43
2022-09-29T04:41:36.879Z,1.00
2022-09-29T04:44:06.179Z,1.20
2022-09-29T04:46:34.551Z,1.00
2022-09-29T04:49:04.162Z,1.30
2022-09-29T04:51:32.489Z,1.00
2022-09-29T04:54:00.877Z,1.33
2022-09-29T04:56:31.619Z,1.00
2022-09-29T04:59:00.131Z,1.40
2022-09-29T05:01:29.226Z,1.60
2022-09-29T05:03:58.067Z,2.00
2022-09-29T05:06:27.822Z,2.23
2022-09-29T05:08:56.046Z,1.80
2022-09-29T05:11:24.318Z,1.90
2022-09-29T05:13:52.834Z,1.60
2022-09-29T05:16:21.124Z,2.27
2022-09-29T05:18:49.487Z,2.30
2022-09-29T05:21:33.454Z,1.93
2022-09-29T05:24:03.527Z,1.70
2022-09-29T05:26:32.338Z,2.03
2022-09-29T05:29:00.626Z,2.13
2022-09-29T05:31:28.852Z,2.60
2022-09-29T05:33:57.455Z,3.43
2022-09-29T05:36:25.944Z,3.67
2022-09-29T05:38:54.163Z,4.63
2022-09-29T05:41:23.909Z,4.97
2022-09-29T05:43:53.619Z,6.53
2022-09-29T05:46:23.035Z,5.90
2022-09-29T05:48:52.466Z,9.10
2022-09-29T05:51:24.824Z,7.60
2022-09-29T05:53:53.210Z,5.77
2022-09-29T05:56:24.904Z,5.40
2022-09-29T05:58:53.983Z,5.63
2022-09-29T06:01:24.818Z,2.33
2022-09-29T06:03:55.142Z,2.00
2022-09-29T06:06:25.791Z,1.90
2022-09-29T06:08:54.311Z,1.67
2022-09-29T06:11:25.705Z,1.70
2022-09-29T06:13:55.735Z,1.60
2022-09-29T06:16:26.790Z,1.90
2022-09-29T06:18:56.285Z,2.10
2022-09-29T06:21:27.456Z,1.70
2022-09-29T06:23:57.825Z,1.90
2022-09-29T06:26:28.716Z,1.80
2022-09-29T06:28:58.584Z,1.90
2022-09-29T06:31:29.907Z,1.63
2022-09-29T06:34:00.233Z,2.60
2022-09-29T06:36:50.436Z,2.00
2022-09-29T06:39:19.028Z,2.03
2022-09-29T06:41:52.280Z,2.30
2022-09-29T06:44:20.983Z,2.43
2022-09-29T06:46:51.137Z,3.20
2022-09-29T06:49:20.224Z,2.00
2022-09-29T06:51:48.689Z,2.00
2022-09-29T06:54:20.348Z,2.23
2022-09-29T06:56:50.694Z,1.87
2022-09-29T06:59:19.236Z,1.80
2022-09-29T07:01:51.009Z,2.10
2022-09-29T07:04:21.481Z,2.23
2022-09-29T07:06:50.352Z,2.20
2022-09-29T07:09:19.251Z,2.30
2022-09-29T07:11:51.437Z,2.30
2022-09-29T07:14:22.591Z,2.37
2022-09-29T07:16:52.131Z,2.63
2022-09-29T07:19:22.231Z,2.10
2022-09-29T07:21:51.702Z,2.23
2022-09-29T07:24:20.022Z,2.70
2022-09-29T07:26:49.744Z,2.33
2022-09-29T07:29:18.118Z,2.53
2022-09-29T07:31:52.101Z,2.23
2022-09-29T07:34:21.301Z,2.40
2022-09-29T07:36:49.758Z,2.50
2022-09-29T07:39:18.322Z,2.70
2022-09-29T07:41:46.572Z,2.43
2022-09-29T07:44:16.246Z,1.93
2022-09-29T07:46:44.545Z,2.20
2022-09-29T07:49:12.895Z,2.00
2022-09-29T07:51:41.190Z,2.07
2022-09-29T07:54:09.419Z,1.80
2022-09-29T07:56:37.787Z,1.57
2022-09-29T07:59:06.128Z,1.50
2022-09-29T08:01:35.829Z,1.90
2022-09-29T08:04:04.677Z,1.63
2022-09-29T08:06:33.675Z,1.40
2022-09-29T08:09:05.177Z,1.73
2022-09-29T08:11:35.017Z,2.13
2022-09-29T08:14:03.685Z,3.20
2022-09-29T08:16:32.758Z,2.00
2022-09-29T08:19:03.307Z,2.67
2022-09-29T08:21:36.350Z,2.60
2022-09-29T08:24:05.754Z,1.53
2022-09-29T08:26:42.394Z,3.37
2022-09-29T08:29:16.439Z,3.20
2022-09-29T08:31:45.365Z,2.40
2022-09-29T08:34:16.152Z,2.83
2022-09-29T08:36:44.646Z,2.00
2022-09-29T08:39:15.468Z,2.30
2022-09-29T08:41:55.099Z,1.80
2022-09-29T08:44:38.995Z,1.73
2022-09-29T08:47:18.162Z,1.63
2022-09-29T08:49:53.623Z,2.03
2022-09-29T08:55:22.644Z,1.80
2022-09-29T08:57:57.554Z,4.10
2022-09-29T09:00:38.960Z,2.60
2022-09-29T09:03:32.303Z,3.07
2022-09-29T09:06:18.827Z,1.70
2022-09-29T09:09:05.376Z,1.30
2022-09-29T09:11:56.032Z,1.00
2022-09-29T09:14:46.787Z,1.33
2022-09-29T09:17:31.243Z,1.67
2022-09-29T09:20:22.061Z,1.20
2022-09-29T09:22:58.239Z,1.53
2022-09-29T09:25:32.147Z,2.60
2022-09-29T09:28:13.748Z,1.80
2022-09-29T09:30:47.668Z,1.60
2022-09-29T09:33:31.698Z,1.50
2022-09-29T09:36:07.444Z,2.73
2022-09-29T09:38:48.325Z,1.97
2022-09-29T09:41:21.281Z,1.87
2022-09-29T09:43:54.925Z,2.73
2022-09-29T09:46:33.719Z,1.80
2022-09-29T09:49:12.498Z,1.20
2022-09-29T09:51:49.235Z,1.30
2022-09-29T09:54:31.449Z,1.40
2022-09-29T09:57:28.303Z,1.10
2022-09-29T10:00:10.363Z,1.23
2022-09-29T10:02:45.325Z,1.60
2022-09-29T10:05:16.346Z,1.37
2022-09-29T10:07:45.817Z,1.40
2022-09-29T10:10:22.105Z,1.43
2022-09-29T10:13:00.259Z,1.33
2022-09-29T10:15:34.006Z,1.50
2022-09-29T10:18:11.944Z,0.97
2022-09-29T10:20:41.910Z,1.20
2022-09-29T10:23:32.338Z,1.20
2022-09-29T10:26:12.061Z,1.10
2022-09-29T10:28:45.744Z,0.97
2022-09-29T10:31:21.731Z,1.10
2022-09-29T10:33:58.051Z,1.10
2022-09-29T10:36:30.555Z,1.13
2022-09-29T10:39:02.291Z,1.10
2022-09-29T10:41:54.231Z,1.00
2022-09-29T10:44:23.374Z,1.30
2022-09-29T10:46:55.944Z,0.90
2022-09-29T10:49:28.154Z,1.10
2022-09-29T10:52:04.798Z,1.20
2022-09-29T10:54:37.438Z,1.40
2022-09-29T10:57:16.776Z,1.10
2022-09-29T10:59:50.156Z,3.13
2022-09-29T11:02:27.925Z,1.83
2022-09-29T11:04:59.392Z,1.43
2022-09-29T11:07:28.714Z,2.00
2022-09-29T11:09:57.015Z,1.83
2022-09-29T11:12:33.521Z,2.40
2022-09-29T11:15:03.105Z,1.77
2022-09-29T11:17:38.441Z,2.70
2022-09-29T11:20:12.779Z,1.70
2022-09-29T11:23:14.502Z,1.27
2022-09-29T11:26:14.619Z,1.60
2022-09-29T11:28:59.513Z,1.40
2022-09-29T11:31:43.722Z,1.40
2022-09-29T11:34:48.286Z,1.07
2022-09-29T11:37:36.247Z,1.50
2022-09-29T11:40:15.554Z,1.20
2022-09-29T11:43:01.679Z,0.97
2022-09-29T11:45:42.242Z,1.33
2022-09-29T11:48:39.186Z,1.00
2022-09-29T11:51:18.617Z,1.30
2022-09-29T11:54:10.846Z,1.10
2022-09-29T11:56:52.734Z,1.10
2022-09-29T11:59:56.586Z,1.30
2022-09-29T12:03:01.230Z,1.00
2022-09-29T12:05:46.721Z,1.20
2022-09-29T12:08:33.971Z,1.50
2022-09-29T12:11:37.382Z,1.40
2022-09-29T12:14:03.296Z,1.00
2022-09-29T12:16:37.133Z,1.23
2022-09-29T12:19:12.009Z,1.50
2022-09-29T12:21:45.054Z,2.00
2022-09-29T12:24:19.124Z,2.17
2022-09-29T12:26:51.791Z,2.17
2022-09-29T12:29:34.210Z,1.50
2022-09-29T12:32:09.654Z,1.50
2022-09-29T12:34:46.963Z,1.30
2022-09-29T12:37:21.681Z,1.20
2022-09-29T12:40:02.216Z,1.20
2022-09-29T12:42:59.565Z,1.10
2022-09-29T12:45:36.136Z,1.40
2022-09-29T12:48:20.798Z,1.07
2022-09-29T12:50:58.874Z,1.40
2022-09-29T12:53:34.367Z,1.57
2022-09-29T12:56:07.438Z,1.43
2022-09-29T12:58:42.618Z,1.33
2022-09-29T13:01:24.153Z,1.20
2022-09-29T13:04:33.068Z,0.90
2022-09-29T13:07:59.916Z,1.27
2022-09-29T13:10:59.158Z,1.20
2022-09-29T13:14:09.171Z,1.27
2022-09-29T13:16:52.934Z,1.40
2022-09-29T13:20:02.757Z,1.30
2022-09-29T13:23:00.711Z,1.20
2022-09-29T13:25:40.308Z,1.50
2022-09-29T13:28:25.017Z,1.60
2022-09-29T13:30:56.111Z,2.93
2022-09-29T13:33:26.449Z,2.00
2022-09-29T13:35:55.107Z,1.30
2022-09-29T13:38:27.904Z,1.60
2022-09-29T13:41:18.417Z,1.73
2022-09-29T13:44:07.047Z,1.50
2022-09-29T13:46:41.129Z,1.63
2022-09-29T13:49:26.278Z,1.73
2022-09-29T13:51:57.153Z,1.60
2022-09-29T13:54:35.593Z,2.20
2022-09-29T13:57:27.095Z,1.67
2022-09-29T14:00:27.049Z,1.97
2022-09-29T14:03:24.417Z,4.50
2022-09-29T14:06:28.900Z,3.87
2022-09-29T14:09:01.025Z,3.30
2022-09-29T14:11:36.033Z,2.47
2022-09-29T14:14:09.231Z,1.60
2022-09-29T14:16:56.139Z,1.70
2022-09-29T14:19:48.220Z,1.93
2022-09-29T14:22:57.135Z,5.00
2022-09-29T14:25:49.965Z,3.00
2022-09-29T14:28:31.519Z,2.03
2022-09-29T14:31:03.014Z,2.27
2022-09-29T14:33:37.805Z,2.30
2022-09-29T14:36:11.758Z,1.87
2022-09-29T14:38:44.188Z,1.67
2022-09-29T14:41:32.321Z,2.00
2022-09-29T14:44:08.079Z,1.63
2022-09-29T14:47:24.694Z,1.60
2022-09-29T14:50:45.697Z,1.50
2022-09-29T14:56:22.452Z,1.90
2022-09-29T14:59:10.907Z,1.63
2022-09-29T15:01:42.935Z,1.30
2022-09-29T15:04:16.733Z,1.60
2022-09-29T15:06:49.538Z,1.20
2022-09-29T15:09:20.326Z,1.27
2022-09-29T15:11:52.902Z,1.23
2022-09-29T15:14:27.817Z,1.53
2022-09-29T15:17:09.990Z,1.40
2022-09-29T15:19:55.528Z,1.20
2022-09-29T15:23:00.304Z,1.50
2022-09-29T15:25:31.152Z,1.40
2022-09-29T15:28:03.225Z,1.37
2022-09-29T15:30:35.028Z,1.23
2022-09-29T15:33:19.517Z,1.50
2022-09-29T15:35:52.576Z,1.67
2022-09-29T15:38:35.776Z,1.80
2022-09-29T15:41:16.697Z,1.60
2022-09-29T15:43:54.245Z,1.57
2022-09-29T15:46:27.497Z,1.43
2022-09-29T15:49:24.943Z,1.60
2022-09-29T15:51:59.568Z,2.03
2022-09-29T15:54:31.635Z,1.90
2022-09-29T15:57:19.525Z,1.80
2022-09-29T15:59:51.581Z,2.30
2022-09-29T16:02:29.612Z,2.00
2022-09-29T16:05:01.258Z,1.70
2022-09-29T16:07:34.512Z,2.30
2022-09-29T16:10:09.602Z,1.80
2022-09-29T16:12:47.866Z,2.00
2022-09-29T16:15:27.759Z,2.10
2022-09-29T16:17:58.592Z,2.20
2022-09-29T16:20:31.153Z,2.30
2022-09-29T16:23:08.439Z,2.30
2022-09-29T16:25:36.957Z,2.00
2022-09-29T16:28:07.403Z,2.10
2022-09-29T16:30:38.801Z,2.60
2022-09-29T16:33:16.333Z,2.97
2022-09-29T16:35:57.432Z,3.40
2022-09-29T16:38:38.816Z,2.97
2022-09-29T16:41:34.320Z,3.10
2022-09-29T16:44:12.875Z,3.20
2022-09-29T16:46:50.220Z,2.83
2022-09-29T16:49:23.637Z,2.77
2022-09-29T16:51:52.212Z,2.60
2022-09-29T16:54:26.538Z,2.73
2022-09-29T16:57:23.785Z,2.17
2022-09-29T16:59:56.165Z,2.30
2022-09-29T17:02:25.827Z,2.30
2022-09-29T17:04:58.562Z,2.47
2022-09-29T17:07:28.409Z,2.67
2022-09-29T17:10:00.503Z,3.20
2022-09-29T17:12:31.619Z,3.67
2022-09-29T17:15:01.615Z,2.40
2022-09-29T17:17:30.166Z,2.53
2022-09-29T17:20:00.234Z,2.70
2022-09-29T17:22:32.301Z,3.37
2022-09-29T17:25:00.680Z,3.63
2022-09-29T17:27:48.068Z,3.23
2022-09-29T17:30:22.504Z,3.40
2022-09-29T17:32:53.782Z,3.47
2022-09-29T17:35:26.534Z,3.80
2022-09-29T17:37:55.405Z,3.33
2022-09-29T17:40:27.376Z,3.20
2022-09-29T17:42:59.924Z,3.60
2022-09-29T17:45:29.979Z,3.20
2022-09-29T17:47:59.354Z,3.47
2022-09-29T17:50:32.736Z,3.33
2022-09-29T17:53:01.214Z,4.07
2022-09-29T17:55:29.548Z,3.37
2022-09-29T17:57:58.239Z,2.97
2022-09-29T18:00:29.589Z,3.40
2022-09-29T18:02:59.392Z,2.67
2022-09-29T18:05:32.432Z,3.23
2022-09-29T18:08:01.910Z,3.50
2022-09-29T18:10:35.725Z,3.07
2022-09-29T18:13:04.116Z,3.80
2022-09-29T18:15:32.512Z,3.43
2022-09-29T18:18:03.624Z,4.03
2022-09-29T18:20:36.613Z,6.40
2022-09-29T18:23:05.347Z,6.20
2022-09-29T18:25:35.429Z,10.67
2022-09-29T18:28:04.458Z,8.50
2022-09-29T18:30:39.354Z,8.57
2022-09-29T18:33:12.378Z,6.20
2022-09-29T18:35:44.729Z,5.80
2022-09-29T18:38:13.912Z,4.50
2022-09-29T18:40:42.424Z,4.53
2022-09-29T18:43:14.039Z,4.07
2022-09-29T18:45:44.859Z,3.37
2022-09-29T18:48:15.683Z,3.77
2022-09-29T18:50:47.407Z,3.93
2022-09-29T18:53:19.553Z,3.00
2022-09-29T18:55:49.471Z,3.40
2022-09-29T18:58:20.864Z,3.47
2022-09-29T19:00:51.187Z,3.90
2022-09-29T19:03:19.903Z,4.50
2022-09-29T19:05:49.746Z,4.93
2022-09-29T19:08:19.355Z,4.63
2022-09-29T19:10:53.899Z,4.60
2022-09-29T19:13:23.131Z,4.47
2022-09-29T19:15:52.099Z,5.00
2022-09-29T19:18:23.708Z,4.73
2022-09-29T19:20:56.444Z,4.43
2022-09-29T19:23:25.942Z,4.30
2022-09-29T19:25:58.484Z,4.20
2022-09-29T19:28:27.652Z,3.93
2022-09-29T19:31:05.311Z,3.60
2022-09-29T19:33:33.817Z,3.40
2022-09-29T19:36:08.764Z,3.90
2022-09-29T19:38:38.601Z,3.30
2022-09-29T19:41:13.786Z,3.40
2022-09-29T19:43:42.143Z,3.73
2022-09-29T19:46:11.855Z,3.17
2022-09-29T19:48:40.522Z,3.30
2022-09-29T19:51:28.447Z,4.10
2022-09-29T19:54:11.232Z,3.90
2022-09-29T19:56:41.073Z,6.83
2022-09-29T19:59:11.579Z,3.70
2022-09-29T20:01:40.045Z,4.00
2022-09-29T20:04:08.849Z,3.80
2022-09-29T20:06:39.788Z,3.80
2022-09-29T20:09:09.211Z,4.00
2022-09-29T20:11:38.096Z,4.73
2022-09-29T20:14:09.736Z,5.03
2022-09-29T20:16:41.508Z,5.17
2022-09-29T20:19:14.005Z,5.57
2022-09-29T20:21:43.781Z,6.20
2022-09-29T20:24:14.367Z,5.20
2022-09-29T20:26:44.312Z,4.80
2022-09-29T20:29:13.142Z,4.43
2022-09-29T20:31:41.602Z,4.37
2022-09-29T20:34:11.912Z,4.10
2022-09-29T20:36:40.233Z,3.53
2022-09-29T20:39:12.231Z,3.80
2022-09-29T20:41:41.947Z,3.73
2022-09-29T20:44:11.176Z,3.93
2022-09-29T20:46:39.700Z,4.20
2022-09-29T20:49:08.051Z,4.20
2022-09-29T20:51:38.164Z,4.03
2022-09-29T20:54:06.605Z,4.40
2022-09-29T20:56:41.609Z,4.40
2022-09-29T20:59:16.753Z,3.73
2022-09-29T21:01:46.188Z,3.70
2022-09-29T21:04:19.366Z,3.80
2022-09-29T21:06:51.963Z,4.13
2022-09-29T21:09:23.023Z,4.20
2022-09-29T21:11:55.120Z,3.90
2022-09-29T21:14:27.903Z,4.50
2022-09-29T21:16:58.251Z,4.60
2022-09-29T21:19:26.955Z,4.40
2022-09-29T21:21:55.575Z,4.47
2022-09-29T21:24:24.263Z,4.77
2022-09-29T21:26:53.977Z,3.97
2022-09-29T21:29:22.543Z,4.43
2022-09-29T21:31:51.431Z,3.40
2022-09-29T21:34:19.997Z,4.10
2022-09-29T21:36:48.466Z,3.83
2022-09-29T21:39:17.265Z,4.20
2022-09-29T21:41:46.640Z,4.37
2022-09-29T21:44:19.678Z,3.23
2022-09-29T21:46:48.268Z,3.90
2022-09-29T21:49:19.244Z,3.93
2022-09-29T21:51:49.921Z,3.57
2022-09-29T21:54:20.499Z,3.63
2022-09-29T21:56:50.275Z,3.40
2022-09-29T21:59:22.446Z,3.47
2022-09-29T22:01:52.083Z,4.00
2022-09-29T22:04:21.191Z,4.60
2022-09-29T22:06:49.805Z,4.07
2022-09-29T22:09:20.910Z,4.00
2022-09-29T22:11:50.712Z,3.73
2022-09-29T22:14:20.607Z,4.03
2022-09-29T22:16:49.166Z,3.60
2022-09-29T22:19:33.464Z,3.80
2022-09-29T22:22:02.140Z,4.17
2022-09-29T22:24:30.373Z,4.00
2022-09-29T22:26:58.589Z,3.73
2022-09-29T22:29:28.603Z,3.90
2022-09-29T22:31:56.897Z,3.97
2022-09-29T22:34:25.181Z,3.90
2022-09-29T22:36:53.488Z,3.93
2022-09-29T22:39:22.039Z,3.70
2022-09-29T22:41:52.628Z,4.10
2022-09-29T22:44:20.896Z,3.40
2022-09-29T22:46:50.554Z,3.83
2022-09-29T22:49:18.849Z,3.90
2022-09-29T22:51:47.095Z,3.80
2022-09-29T22:54:15.567Z,4.53
2022-09-29T22:56:43.863Z,3.80
2022-09-29T22:59:13.212Z,4.17
2022-09-29T23:01:41.563Z,3.80
2022-09-29T23:04:11.286Z,3.60
2022-09-29T23:06:39.609Z,3.83
2022-09-29T23:09:08.277Z,3.70
2022-09-29T23:11:36.597Z,3.83
2022-09-29T23:14:05.113Z,4.30
2022-09-29T23:16:33.464Z,4.07
2022-09-29T23:19:01.790Z,4.60
2022-09-29T23:21:31.686Z,4.20
2022-09-29T23:24:02.193Z,4.07
2022-09-29T23:26:32.129Z,4.20
2022-09-29T23:29:01.243Z,4.03
2022-09-29T23:31:29.660Z,4.23
2022-09-29T23:33:59.914Z,4.20
2022-09-29T23:36:31.383Z,5.03
2022-09-29T23:39:19.867Z,4.37
2022-09-29T23:41:50.319Z,4.33
2022-09-29T23:44:21.497Z,4.20
2022-09-29T23:46:50.527Z,4.27
2022-09-29T23:49:22.392Z,4.20
2022-09-29T23:51:54.093Z,4.57
2022-09-29T23:54:25.078Z,4.53
2022-09-29T23:56:55.774Z,4.07
2022-09-29T23:59:24.539Z,4.57
